createdAt,value
2023-05-14T00:00:27.431Z,9.94
2023-05-14T00:01:30.858Z,9.91
2023-05-14T00:02:33.423Z,9.89
2023-05-14T00:04:26.789Z,9.86
2023-05-14T00:05:26.770Z,9.84
2023-05-14T00:06:26.771Z,9.84
2023-05-14T00:07:26.764Z,9.84
2023-05-14T00:08:26.800Z,9.84
2023-05-14T00:09:26.757Z,9.83
2023-05-14T00:10:26.768Z,9.81
2023-05-14T00:11:26.829Z,9.77
2023-05-14T00:12:26.767Z,9.75
2023-05-14T00:13:26.781Z,9.73
2023-05-14T00:14:26.766Z,9.7
2023-05-14T00:15:26.771Z,9.69
2023-05-14T00:16:26.768Z,9.68
2023-05-14T00:17:26.769Z,9.67
2023-05-14T00:18:26.791Z,9.65
2023-05-14T00:19:26.775Z,9.64
2023-05-14T00:20:26.755Z,9.63
2023-05-14T00:21:27.613Z,9.61
2023-05-14T00:22:31.040Z,9.6
2023-05-14T00:24:34.446Z,9.53
2023-05-14T00:26:26.772Z,9.5
2023-05-14T00:27:26.759Z,9.48
2023-05-14T00:28:26.758Z,9.5
2023-05-14T00:29:26.769Z,9.52
2023-05-14T00:30:26.781Z,9.53
2023-05-14T00:31:26.816Z,9.56
2023-05-14T00:32:26.790Z,9.61
2023-05-14T00:33:26.779Z,9.65
2023-05-14T00:34:26.781Z,9.67
2023-05-14T00:35:26.779Z,9.69
2023-05-14T00:36:26.872Z,9.7
2023-05-14T00:37:26.767Z,9.7
2023-05-14T00:38:26.760Z,9.69
2023-05-14T00:39:26.759Z,9.67
2023-05-14T00:40:26.759Z,9.66
2023-05-14T00:41:26.758Z,9.62
2023-05-14T00:42:26.758Z,9.59
2023-05-14T00:43:27.773Z,9.56
2023-05-14T00:44:31.256Z,9.53
2023-05-14T00:45:34.424Z,9.5
2023-05-14T00:47:26.777Z,9.45
2023-05-14T00:48:26.782Z,9.43
2023-05-14T00:49:26.768Z,9.41
2023-05-14T00:50:26.875Z,9.41
2023-05-14T00:51:26.765Z,9.41
2023-05-14T00:52:26.760Z,9.4
2023-05-14T00:53:26.794Z,9.38
2023-05-14T00:54:26.765Z,9.36
2023-05-14T00:55:26.768Z,9.33
2023-05-14T00:56:26.762Z,9.32
2023-05-14T00:57:26.764Z,9.29
2023-05-14T00:58:26.775Z,9.26
2023-05-14T00:59:26.761Z,9.25
2023-05-14T01:00:26.775Z,9.25
2023-05-14T01:01:26.790Z,9.24
2023-05-14T01:02:26.814Z,9.23
2023-05-14T01:03:26.913Z,9.22
2023-05-14T01:04:27.920Z,9.19
2023-05-14T01:05:31.303Z,9.18
2023-05-14T01:06:34.439Z,9.15
2023-05-14T01:08:26.785Z,9.09
2023-05-14T01:09:26.797Z,9.07
2023-05-14T01:10:26.931Z,9.04
2023-05-14T01:11:26.756Z,9.03
2023-05-14T01:12:26.762Z,9.02
2023-05-14T01:13:26.754Z,9.04
2023-05-14T01:14:26.759Z,9.06
2023-05-14T01:15:26.780Z,9.09
2023-05-14T01:16:26.797Z,9.11
2023-05-14T01:17:26.812Z,9.1
2023-05-14T01:18:26.805Z,9.1
2023-05-14T01:19:26.758Z,9.08
2023-05-14T01:20:26.811Z,9.06
2023-05-14T01:21:26.760Z,9.04
2023-05-14T01:22:26.776Z,9.03
2023-05-14T01:23:26.782Z,9
2023-05-14T01:24:26.759Z,8.97
2023-05-14T01:25:27.892Z,8.95
2023-05-14T01:26:31.392Z,8.93
2023-05-14T01:27:34.944Z,8.91
2023-05-14T01:29:26.763Z,8.87
2023-05-14T01:30:26.819Z,8.86
2023-05-14T01:31:26.825Z,8.83
2023-05-14T01:32:26.849Z,8.81
2023-05-14T01:33:26.764Z,8.81
2023-05-14T01:34:26.779Z,8.79
2023-05-14T01:35:26.796Z,8.78
2023-05-14T01:36:26.762Z,8.78
2023-05-14T01:37:26.765Z,8.78
2023-05-14T01:38:26.754Z,8.76
2023-05-14T01:39:26.764Z,8.74
2023-05-14T01:40:26.768Z,8.72
2023-05-14T01:41:26.773Z,8.7
2023-05-14T01:42:26.764Z,8.68
2023-05-14T01:43:26.830Z,8.66
2023-05-14T01:44:26.764Z,8.64
2023-05-14T01:45:26.772Z,8.61
2023-05-14T01:46:28.039Z,8.57
2023-05-14T01:47:31.522Z,8.54
2023-05-14T01:48:33.569Z,8.51
2023-05-14T01:49:26.768Z,8.49
2023-05-14T01:50:26.773Z,8.46
2023-05-14T01:51:26.757Z,8.44
2023-05-14T01:52:26.760Z,8.42
2023-05-14T01:53:26.803Z,8.4
2023-05-14T01:54:26.761Z,8.38
2023-05-14T01:55:26.815Z,8.35
2023-05-14T01:56:26.766Z,8.33
2023-05-14T01:57:26.753Z,8.32
2023-05-14T01:58:26.776Z,8.31
2023-05-14T01:59:26.765Z,8.29
2023-05-14T02:00:26.858Z,8.26
2023-05-14T02:01:26.795Z,8.24
2023-05-14T02:02:26.815Z,8.21
2023-05-14T02:03:26.791Z,8.19
2023-05-14T02:04:26.824Z,8.16
2023-05-14T02:05:26.754Z,8.14
2023-05-14T02:06:26.758Z,8.11
2023-05-14T02:07:28.032Z,8.07
2023-05-14T02:08:31.610Z,8.04
2023-05-14T02:09:33.065Z,8.03
2023-05-14T02:10:26.762Z,8.09
2023-05-14T02:11:26.762Z,8.12
2023-05-14T02:12:26.773Z,8.15
2023-05-14T02:13:26.765Z,8.16
2023-05-14T02:14:26.771Z,8.15
2023-05-14T02:15:26.757Z,8.13
2023-05-14T02:16:26.821Z,8.11
2023-05-14T02:17:26.771Z,8.07
2023-05-14T02:18:26.800Z,8.04
2023-05-14T02:19:26.760Z,8.02
2023-05-14T02:20:26.769Z,8.01
2023-05-14T02:21:26.766Z,7.98
2023-05-14T02:22:26.763Z,7.97
2023-05-14T02:23:38.187Z,7.94
2023-05-14T02:24:26.766Z,7.91
2023-05-14T02:25:26.764Z,7.88
2023-05-14T02:26:26.768Z,7.84
2023-05-14T02:27:26.769Z,7.8
2023-05-14T02:28:28.170Z,7.78
2023-05-14T02:29:31.681Z,7.76
2023-05-14T02:30:33.169Z,7.76
2023-05-14T02:31:26.785Z,7.76
2023-05-14T02:32:26.844Z,7.75
2023-05-14T02:33:26.798Z,7.75
2023-05-14T02:34:26.770Z,7.74
2023-05-14T02:35:26.776Z,7.72
2023-05-14T02:36:26.755Z,7.68
2023-05-14T02:37:26.764Z,7.65
2023-05-14T02:38:26.794Z,7.59
2023-05-14T02:39:26.764Z,7.56
2023-05-14T02:40:26.794Z,7.54
2023-05-14T02:41:26.775Z,7.54
2023-05-14T02:42:26.763Z,7.52
2023-05-14T02:43:26.765Z,7.5
2023-05-14T02:44:26.765Z,7.47
2023-05-14T02:45:26.761Z,7.44
2023-05-14T02:46:26.770Z,7.42
2023-05-14T02:47:26.803Z,7.41
2023-05-14T02:48:26.754Z,7.39
2023-05-14T02:49:28.182Z,7.38
2023-05-14T02:50:31.908Z,7.36
2023-05-14T02:51:33.235Z,7.36
2023-05-14T02:52:26.772Z,7.34
2023-05-14T02:53:26.815Z,7.34
2023-05-14T02:54:26.759Z,7.34
2023-05-14T02:55:26.770Z,7.35
2023-05-14T02:56:26.767Z,7.34
2023-05-14T02:57:26.771Z,7.35
2023-05-14T02:58:29.800Z,7.36
2023-05-14T02:59:26.792Z,7.36
2023-05-14T03:00:26.761Z,7.35
2023-05-14T03:01:26.827Z,7.35
2023-05-14T03:02:26.873Z,7.34
2023-05-14T03:03:26.818Z,7.33
2023-05-14T03:04:26.777Z,7.32
2023-05-14T03:05:26.763Z,7.3
2023-05-14T03:06:26.768Z,7.28
2023-05-14T03:07:26.767Z,7.25
2023-05-14T03:08:26.770Z,7.23
2023-05-14T03:09:26.766Z,7.22
2023-05-14T03:10:28.295Z,7.21
2023-05-14T03:11:31.977Z,7.2
2023-05-14T03:12:33.324Z,7.2
2023-05-14T03:13:26.790Z,7.2
2023-05-14T03:14:26.898Z,7.21
2023-05-14T03:15:26.758Z,7.23
2023-05-14T03:16:26.783Z,7.23
2023-05-14T03:17:26.799Z,7.22
2023-05-14T03:18:26.820Z,7.2
2023-05-14T03:19:26.781Z,7.19
2023-05-14T03:20:26.765Z,7.18
2023-05-14T03:21:26.758Z,7.17
2023-05-14T03:22:26.770Z,7.16
2023-05-14T03:23:26.780Z,7.16
2023-05-14T03:24:26.792Z,7.15
2023-05-14T03:25:26.766Z,7.14
2023-05-14T03:26:26.764Z,7.13
2023-05-14T03:27:26.766Z,7.12
2023-05-14T03:28:26.777Z,7.09
2023-05-14T03:29:26.772Z,7.07
2023-05-14T03:30:26.965Z,7.05
2023-05-14T03:31:28.476Z,7.03
2023-05-14T03:32:31.615Z,7
2023-05-14T03:33:33.586Z,6.97
2023-05-14T03:34:26.765Z,6.94
2023-05-14T03:35:26.787Z,6.91
2023-05-14T03:36:26.786Z,6.89
2023-05-14T03:37:26.779Z,6.86
2023-05-14T03:38:26.878Z,6.85
2023-05-14T03:39:26.758Z,6.85
2023-05-14T03:40:26.778Z,6.84
2023-05-14T03:41:26.767Z,6.84
2023-05-14T03:42:26.804Z,6.84
2023-05-14T03:43:26.776Z,6.85
2023-05-14T03:44:26.772Z,6.85
2023-05-14T03:45:26.765Z,6.84
2023-05-14T03:46:26.756Z,6.83
2023-05-14T03:47:26.781Z,6.83
2023-05-14T03:48:26.831Z,6.83
2023-05-14T03:49:26.769Z,6.83
2023-05-14T03:50:26.766Z,6.83
2023-05-14T03:51:26.764Z,6.82
2023-05-14T03:52:26.767Z,6.81
2023-05-14T03:53:29.756Z,6.81
2023-05-14T03:54:32.087Z,6.8
2023-05-14T03:56:26.772Z,6.92
2023-05-14T03:57:26.772Z,6.97
2023-05-14T03:58:26.763Z,7.04
2023-05-14T03:59:26.753Z,7.09
2023-05-14T04:00:26.887Z,7.12
2023-05-14T04:01:26.763Z,7.16
2023-05-14T04:02:26.798Z,7.19
2023-05-14T04:03:26.837Z,7.22
2023-05-14T04:04:26.810Z,7.22
2023-05-14T04:05:26.762Z,7.22
2023-05-14T04:06:26.758Z,7.21
2023-05-14T04:07:26.768Z,7.22
2023-05-14T04:08:26.770Z,7.2
2023-05-14T04:09:26.768Z,7.2
2023-05-14T04:10:26.779Z,7.19
2023-05-14T04:11:26.763Z,7.19
2023-05-14T04:12:26.755Z,7.22
2023-05-14T04:13:26.857Z,7.27
2023-05-14T04:14:29.786Z,7.31
2023-05-14T04:15:32.208Z,7.33
2023-05-14T04:17:26.902Z,7.34
2023-05-14T04:18:26.816Z,7.34
2023-05-14T04:19:26.763Z,7.32
2023-05-14T04:20:26.769Z,7.32
2023-05-14T04:21:26.781Z,7.33
2023-05-14T04:22:26.772Z,7.35
2023-05-14T04:23:26.763Z,7.38
2023-05-14T04:24:26.758Z,7.41
2023-05-14T04:25:26.766Z,7.44
2023-05-14T04:26:26.770Z,7.45
2023-05-14T04:27:26.775Z,7.47
2023-05-14T04:28:26.759Z,7.47
2023-05-14T04:29:26.771Z,7.48
2023-05-14T04:30:26.760Z,7.49
2023-05-14T04:31:26.790Z,7.5
2023-05-14T04:32:26.771Z,7.5
2023-05-14T04:33:26.765Z,7.52
2023-05-14T04:34:27.128Z,7.55
2023-05-14T04:35:29.923Z,7.57
2023-05-14T04:36:32.289Z,7.6
2023-05-14T04:38:26.757Z,7.7
2023-05-14T04:39:26.770Z,7.76
2023-05-14T04:40:26.943Z,7.81
2023-05-14T04:41:26.780Z,7.85
2023-05-14T04:42:26.756Z,7.89
2023-05-14T04:43:26.758Z,7.94
2023-05-14T04:44:26.755Z,7.97
2023-05-14T04:45:26.799Z,8.03
2023-05-14T04:46:26.773Z,8.06
2023-05-14T04:47:26.772Z,8.1
2023-05-14T04:48:26.764Z,8.12
2023-05-14T04:49:26.760Z,8.16
2023-05-14T04:50:26.767Z,8.18
2023-05-14T04:51:26.767Z,8.23
2023-05-14T04:52:26.777Z,8.26
2023-05-14T04:53:26.760Z,8.29
2023-05-14T04:54:26.802Z,8.32
2023-05-14T04:55:26.973Z,8.34
2023-05-14T04:56:29.906Z,8.37
2023-05-14T04:57:32.398Z,8.39
2023-05-14T04:59:27.050Z,8.43
2023-05-14T05:00:26.958Z,8.46
2023-05-14T05:01:26.809Z,8.49
2023-05-14T05:02:26.803Z,8.5
2023-05-14T05:03:26.971Z,8.56
2023-05-14T05:04:26.764Z,8.61
2023-05-14T05:05:26.764Z,8.64
2023-05-14T05:06:26.827Z,8.69
2023-05-14T05:07:26.756Z,8.74
2023-05-14T05:08:26.784Z,8.78
2023-05-14T05:09:26.769Z,8.82
2023-05-14T05:10:26.900Z,8.87
2023-05-14T05:11:26.763Z,8.91
2023-05-14T05:12:26.798Z,8.97
2023-05-14T05:13:26.762Z,9
2023-05-14T05:14:26.753Z,9.04
2023-05-14T05:15:27.768Z,9.08
2023-05-14T05:16:27.246Z,9.13
2023-05-14T05:17:30.153Z,9.16
2023-05-14T05:18:32.668Z,9.2
2023-05-14T05:20:26.767Z,9.29
2023-05-14T05:21:26.758Z,9.34
2023-05-14T05:22:26.760Z,9.4
2023-05-14T05:23:26.785Z,9.46
2023-05-14T05:24:26.920Z,9.54
2023-05-14T05:25:26.761Z,9.63
2023-05-14T05:26:26.770Z,9.7
2023-05-14T05:27:26.766Z,9.77
2023-05-14T05:28:26.773Z,9.86
2023-05-14T05:29:26.776Z,9.93
2023-05-14T05:30:26.828Z,10.01
2023-05-14T05:31:26.786Z,10.06
2023-05-14T05:32:26.768Z,10.12
2023-05-14T05:33:26.768Z,10.17
2023-05-14T05:34:26.762Z,10.21
2023-05-14T05:35:26.760Z,10.27
2023-05-14T05:36:26.773Z,10.32
2023-05-14T05:37:27.171Z,10.4
2023-05-14T05:38:30.152Z,10.46
2023-05-14T05:39:32.682Z,10.52
2023-05-14T05:41:26.774Z,10.67
2023-05-14T05:42:26.758Z,10.71
2023-05-14T05:43:26.758Z,10.76
2023-05-14T05:44:26.776Z,10.83
2023-05-14T05:45:26.907Z,10.9
2023-05-14T05:46:26.822Z,10.98
2023-05-14T05:47:26.816Z,11.05
2023-05-14T05:48:26.765Z,11.05
2023-05-14T05:49:26.772Z,11.12
2023-05-14T05:50:26.761Z,11.19
2023-05-14T05:51:26.760Z,11.25
2023-05-14T05:52:26.763Z,11.32
2023-05-14T05:53:26.760Z,11.38
2023-05-14T05:54:26.768Z,11.46
2023-05-14T05:55:26.862Z,11.53
2023-05-14T05:56:26.761Z,11.63
2023-05-14T05:57:26.760Z,11.74
2023-05-14T05:58:26.819Z,11.86
2023-05-14T05:59:30.236Z,12
2023-05-14T06:00:32.816Z,12.14
2023-05-14T06:02:26.895Z,12.4
2023-05-14T06:03:26.776Z,12.56
2023-05-14T06:04:26.757Z,12.81
2023-05-14T06:05:26.806Z,13
2023-05-14T06:06:26.754Z,13.28
2023-05-14T06:07:26.764Z,13.67
2023-05-14T06:08:26.759Z,13.95
2023-05-14T06:09:26.763Z,14.58
2023-05-14T06:10:26.777Z,14.84
2023-05-14T06:11:26.761Z,15.01
2023-05-14T06:12:26.768Z,15.37
2023-05-14T06:13:26.770Z,15.5
2023-05-14T06:14:26.768Z,15.77
2023-05-14T06:15:26.771Z,15.92
2023-05-14T06:16:27.167Z,16.12
2023-05-14T06:17:26.796Z,16.39
2023-05-14T06:18:26.799Z,16.56
2023-05-14T06:19:26.924Z,16.84
2023-05-14T06:20:30.296Z,16.93
2023-05-14T06:21:32.812Z,17.12
2023-05-14T06:23:26.781Z,16.68
2023-05-14T06:24:26.751Z,16.62
2023-05-14T06:25:26.762Z,16.73
2023-05-14T06:26:26.773Z,17.02
2023-05-14T06:27:26.768Z,17.19
2023-05-14T06:28:26.768Z,17.41
2023-05-14T06:29:26.765Z,17.36
2023-05-14T06:30:26.911Z,17.69
2023-05-14T06:31:26.811Z,17.92
2023-05-14T06:32:26.782Z,17.85
2023-05-14T06:33:26.771Z,17.83
2023-05-14T06:34:26.768Z,17.55
2023-05-14T06:35:26.760Z,17.19
2023-05-14T06:36:26.770Z,16.97
2023-05-14T06:37:26.952Z,16.17
2023-05-14T06:38:26.762Z,16.05
2023-05-14T06:39:26.760Z,15.64
2023-05-14T06:40:26.959Z,15.48
2023-05-14T06:41:30.371Z,15.19
2023-05-14T06:42:32.951Z,14.98
2023-05-14T06:44:26.771Z,14.75
2023-05-14T06:45:26.758Z,14.74
2023-05-14T06:46:26.760Z,14.64
2023-05-14T06:47:26.779Z,14.56
2023-05-14T06:48:26.811Z,14.51
2023-05-14T06:49:26.774Z,14.37
2023-05-14T06:50:26.753Z,14.3
2023-05-14T06:51:26.763Z,14.21
2023-05-14T06:52:26.759Z,14.23
2023-05-14T06:53:26.760Z,14.18
2023-05-14T06:54:26.776Z,14.14
2023-05-14T06:55:26.760Z,14.27
2023-05-14T06:56:26.761Z,14.34
2023-05-14T06:57:26.758Z,14.28
2023-05-14T06:58:26.765Z,14.22
2023-05-14T06:59:26.778Z,14.28
2023-05-14T07:00:26.812Z,14.25
2023-05-14T07:01:26.817Z,14.09
2023-05-14T07:02:27.341Z,14.04
2023-05-14T07:03:30.902Z,14.01
2023-05-14T07:04:33.647Z,14.08
2023-05-14T07:06:26.764Z,14.17
2023-05-14T07:07:26.769Z,14.24
2023-05-14T07:08:26.746Z,14.29
2023-05-14T07:09:26.756Z,14.37
2023-05-14T07:10:26.832Z,14.38
2023-05-14T07:11:26.760Z,14.34
2023-05-14T07:12:26.761Z,14.37
2023-05-14T07:13:29.898Z,14.38
2023-05-14T07:14:26.757Z,14.36
2023-05-14T07:15:26.780Z,14.29
2023-05-14T07:16:26.784Z,14.44
2023-05-14T07:17:26.854Z,14.6
2023-05-14T07:18:26.780Z,14.82
2023-05-14T07:19:26.777Z,14.95
2023-05-14T07:20:26.926Z,14.95
2023-05-14T07:21:26.756Z,15.07
2023-05-14T07:22:26.755Z,15.09
2023-05-14T07:23:27.333Z,15.15
2023-05-14T07:24:31.010Z,15.19
2023-05-14T07:25:33.833Z,15.02
2023-05-14T07:27:26.772Z,15.23
2023-05-14T07:28:26.754Z,15.29
2023-05-14T07:29:26.758Z,15.47
2023-05-14T07:30:26.871Z,15.4
2023-05-14T07:31:26.823Z,15.35
2023-05-14T07:32:26.778Z,15.58
2023-05-14T07:33:26.763Z,15.96
2023-05-14T07:34:26.761Z,16.27
2023-05-14T07:35:26.764Z,16.52
2023-05-14T07:36:26.769Z,16.55
2023-05-14T07:37:26.761Z,16.63
2023-05-14T07:38:26.765Z,16.92
2023-05-14T07:39:26.775Z,16.96
2023-05-14T07:40:26.923Z,17.43
2023-05-14T07:41:26.755Z,17.64
2023-05-14T07:42:35.676Z,17.8
2023-05-14T07:43:26.771Z,17.67
2023-05-14T07:44:27.421Z,17.55
2023-05-14T07:45:31.093Z,17.77
2023-05-14T07:46:33.963Z,18.13
2023-05-14T07:48:26.846Z,18.19
2023-05-14T07:49:26.762Z,18
2023-05-14T07:50:26.843Z,18.11
2023-05-14T07:51:26.759Z,18.24
2023-05-14T07:52:26.768Z,18.38
2023-05-14T07:53:26.759Z,18.43
2023-05-14T07:54:26.755Z,18.37
2023-05-14T07:55:26.766Z,18.68
2023-05-14T07:56:26.764Z,18.64
2023-05-14T07:57:26.769Z,18.46
2023-05-14T07:58:26.769Z,18.6
2023-05-14T07:59:26.751Z,18.5
2023-05-14T08:00:26.884Z,18.6
2023-05-14T08:01:26.762Z,18.73
2023-05-14T08:02:26.805Z,19.21
2023-05-14T08:03:26.826Z,19.63
2023-05-14T08:04:26.822Z,19.89
2023-05-14T08:05:27.480Z,19.94
2023-05-14T08:06:30.996Z,19.52
2023-05-14T08:07:33.978Z,19.28
2023-05-14T08:09:26.853Z,19.19
2023-05-14T08:10:27.044Z,19.02
2023-05-14T08:11:26.765Z,19.17
2023-05-14T08:12:26.768Z,19.46
2023-05-14T08:13:26.763Z,19.6
2023-05-14T08:14:26.759Z,19.48
2023-05-14T08:15:30.073Z,19.17
2023-05-14T08:16:26.803Z,19.44
2023-05-14T08:17:26.801Z,19.58
2023-05-14T08:18:26.798Z,19.58
2023-05-14T08:19:26.762Z,19.8
2023-05-14T08:20:26.869Z,19.75
2023-05-14T08:21:26.764Z,19.52
2023-05-14T08:22:26.775Z,19.39
2023-05-14T08:23:26.789Z,19.31
2023-05-14T08:24:26.758Z,19.22
2023-05-14T08:25:26.765Z,19.1
2023-05-14T08:26:27.577Z,19.32
2023-05-14T08:27:31.052Z,19.29
2023-05-14T08:28:34.054Z,19.25
2023-05-14T08:30:27.044Z,19.26
2023-05-14T08:31:26.889Z,19.18
2023-05-14T08:32:26.810Z,18.96
2023-05-14T08:33:26.763Z,18.95
2023-05-14T08:34:26.772Z,18.98
2023-05-14T08:35:26.776Z,18.97
2023-05-14T08:36:26.955Z,19
2023-05-14T08:37:26.923Z,19.01
2023-05-14T08:38:26.770Z,19.03
2023-05-14T08:39:26.762Z,19.13
2023-05-14T08:40:26.962Z,19.49
2023-05-14T08:41:26.771Z,19.83
2023-05-14T08:42:26.761Z,20.15
2023-05-14T08:43:26.790Z,20.51
2023-05-14T08:44:26.780Z,20.8
2023-05-14T08:45:26.764Z,20.79
2023-05-14T08:46:26.763Z,20.64
2023-05-14T08:47:27.698Z,20.62
2023-05-14T08:48:31.355Z,20.47
2023-05-14T08:49:34.161Z,20.54
2023-05-14T08:51:26.775Z,20.21
2023-05-14T08:52:26.754Z,20.19
2023-05-14T08:53:26.766Z,20.5
2023-05-14T08:54:26.759Z,20.98
2023-05-14T08:55:26.760Z,21.4
2023-05-14T08:56:26.778Z,21.6
2023-05-14T08:57:26.825Z,21.89
2023-05-14T08:58:26.892Z,21.93
2023-05-14T08:59:26.760Z,21.46
2023-05-14T09:00:27.238Z,21.49
2023-05-14T09:01:26.916Z,21.4
2023-05-14T09:02:26.758Z,21.3
2023-05-14T09:03:26.798Z,20.9
2023-05-14T09:04:26.754Z,20.92
2023-05-14T09:05:26.759Z,21.01
2023-05-14T09:06:26.778Z,21.09
2023-05-14T09:07:26.788Z,20.93
2023-05-14T09:08:27.742Z,20.82
2023-05-14T09:09:31.258Z,21.06
2023-05-14T09:10:33.934Z,21.17
2023-05-14T09:12:26.769Z,21.08
2023-05-14T09:13:29.758Z,21.12
2023-05-14T09:14:26.766Z,21.19
2023-05-14T09:15:26.786Z,21.23
2023-05-14T09:16:26.804Z,21.18
2023-05-14T09:17:26.815Z,21.24
2023-05-14T09:18:26.816Z,20.94
2023-05-14T09:19:26.766Z,21.04
2023-05-14T09:20:27.023Z,21.23
2023-05-14T09:21:26.763Z,21.27
2023-05-14T09:22:26.782Z,21.32
2023-05-14T09:23:26.758Z,21.14
2023-05-14T09:24:26.770Z,21.34
2023-05-14T09:25:26.762Z,21.58
2023-05-14T09:26:26.759Z,21.73
2023-05-14T09:27:26.774Z,21.86
2023-05-14T09:28:26.768Z,21.83
2023-05-14T09:29:27.804Z,21.59
2023-05-14T09:30:31.457Z,21.36
2023-05-14T09:31:34.332Z,21.65
2023-05-14T09:33:26.760Z,21.52
2023-05-14T09:34:26.756Z,21.08
2023-05-14T09:35:26.776Z,20.93
2023-05-14T09:36:26.769Z,20.73
2023-05-14T09:37:26.777Z,20.91
2023-05-14T09:38:26.759Z,21.26
2023-05-14T09:39:26.790Z,21.28
2023-05-14T09:40:26.991Z,21.55
2023-05-14T09:41:26.760Z,21.78
2023-05-14T09:42:26.795Z,21.42
2023-05-14T09:43:26.777Z,21.16
2023-05-14T09:44:26.759Z,21.25
2023-05-14T09:45:26.760Z,21.18
2023-05-14T09:46:26.764Z,21.24
2023-05-14T09:47:26.914Z,21.49
2023-05-14T09:48:26.803Z,21.55
2023-05-14T09:49:26.770Z,21.6
2023-05-14T09:50:27.907Z,21.7
2023-05-14T09:51:31.196Z,21.56
2023-05-14T09:52:33.325Z,21.24
2023-05-14T09:53:26.757Z,21.29
2023-05-14T09:54:26.764Z,21.52
2023-05-14T09:55:26.759Z,21.68
2023-05-14T09:56:26.779Z,21.55
2023-05-14T09:57:26.780Z,21.57
2023-05-14T09:58:26.796Z,21.71
2023-05-14T09:59:26.764Z,21.87
2023-05-14T10:00:26.861Z,21.84
2023-05-14T10:01:26.788Z,21.8
2023-05-14T10:02:26.789Z,21.49
2023-05-14T10:03:26.802Z,21.4
2023-05-14T10:04:26.776Z,21.3
2023-05-14T10:05:26.766Z,21.46
2023-05-14T10:06:26.763Z,21.4
2023-05-14T10:07:26.755Z,21.32
2023-05-14T10:08:26.763Z,21.25
2023-05-14T10:09:26.755Z,21.25
2023-05-14T10:10:27.215Z,21.41
2023-05-14T10:11:26.768Z,21.81
2023-05-14T10:12:28.116Z,22.13
2023-05-14T10:13:31.645Z,22.49
2023-05-14T10:14:33.117Z,22.57
2023-05-14T10:15:26.762Z,22.7
2023-05-14T10:16:26.788Z,22.61
2023-05-14T10:17:26.947Z,22.44
2023-05-14T10:18:26.772Z,22.65
2023-05-14T10:19:26.810Z,22.7
2023-05-14T10:20:26.894Z,22.61
2023-05-14T10:21:26.770Z,22.64
2023-05-14T10:22:26.754Z,22.38
2023-05-14T10:23:26.755Z,22.35
2023-05-14T10:24:26.771Z,22.31
2023-05-14T10:25:26.765Z,22.16
2023-05-14T10:26:26.761Z,22.1
2023-05-14T10:27:26.756Z,22.22
2023-05-14T10:28:26.754Z,22.07
2023-05-14T10:29:26.760Z,22.05
2023-05-14T10:30:26.885Z,22.25
2023-05-14T10:31:26.776Z,22.5
2023-05-14T10:32:26.754Z,22.26
2023-05-14T10:33:28.270Z,22.43
2023-05-14T10:34:31.806Z,22.15
2023-05-14T10:35:33.175Z,22.54
2023-05-14T10:36:26.792Z,21.97
2023-05-14T10:37:26.771Z,21.85
2023-05-14T10:38:26.763Z,21.84
2023-05-14T10:39:26.777Z,22.05
2023-05-14T10:40:26.992Z,22.23
2023-05-14T10:41:26.793Z,22.35
2023-05-14T10:42:26.759Z,22.39
2023-05-14T10:43:26.758Z,22.33
2023-05-14T10:44:26.750Z,22.42
2023-05-14T10:45:26.755Z,22.25
2023-05-14T10:46:26.792Z,22.37
2023-05-14T10:47:26.778Z,22.45
2023-05-14T10:48:26.757Z,21.97
2023-05-14T10:49:42.671Z,21.64
2023-05-14T10:50:26.837Z,21.15
2023-05-14T10:51:26.822Z,20.95
2023-05-14T10:52:26.762Z,20.75
2023-05-14T10:53:26.763Z,20.58
2023-05-14T10:54:28.353Z,20.47
2023-05-14T10:55:31.915Z,20.54
2023-05-14T10:56:33.300Z,20.61
2023-05-14T10:57:26.762Z,20.93
2023-05-14T10:58:26.835Z,21.17
2023-05-14T10:59:26.759Z,21.11
2023-05-14T11:00:26.761Z,21.45
2023-05-14T11:01:26.774Z,21.45
2023-05-14T11:02:26.797Z,21.41
2023-05-14T11:03:26.761Z,21.48
2023-05-14T11:04:26.768Z,21.39
2023-05-14T11:05:26.766Z,21.4
2023-05-14T11:06:26.762Z,21.22
2023-05-14T11:07:26.757Z,21.71
2023-05-14T11:08:29.773Z,22.02
2023-05-14T11:09:26.784Z,22.37
2023-05-14T11:10:26.856Z,22.27
2023-05-14T11:11:26.766Z,22.22
2023-05-14T11:12:26.760Z,21.87
2023-05-14T11:13:26.772Z,21.77
2023-05-14T11:14:26.796Z,21.62
2023-05-14T11:15:28.472Z,21.26
2023-05-14T11:16:31.962Z,20.93
2023-05-14T11:17:33.351Z,20.88
2023-05-14T11:18:26.800Z,21.12
2023-05-14T11:19:26.889Z,21.43
2023-05-14T11:20:26.875Z,21.79
2023-05-14T11:21:26.842Z,22.13
2023-05-14T11:22:26.796Z,22.49
2023-05-14T11:23:26.769Z,22.58
2023-05-14T11:24:26.769Z,22.17
2023-05-14T11:25:26.776Z,21.87
2023-05-14T11:26:26.796Z,21.48
2023-05-14T11:27:26.763Z,21.13
2023-05-14T11:28:26.769Z,20.83
2023-05-14T11:29:26.779Z,20.65
2023-05-14T11:30:26.766Z,20.58
2023-05-14T11:31:26.787Z,20.71
2023-05-14T11:32:26.770Z,21.2
2023-05-14T11:33:26.762Z,21.19
2023-05-14T11:34:26.758Z,21.35
2023-05-14T11:35:26.764Z,21.35
2023-05-14T11:36:28.536Z,21.29
2023-05-14T11:37:32.107Z,21.31
2023-05-14T11:38:33.422Z,21.36
2023-05-14T11:39:26.759Z,21.32
2023-05-14T11:40:26.947Z,21.25
2023-05-14T11:41:26.787Z,21.11
2023-05-14T11:42:26.758Z,21.19
2023-05-14T11:43:26.880Z,21.18
2023-05-14T11:44:26.754Z,21.11
2023-05-14T11:45:26.757Z,21.06
2023-05-14T11:46:26.820Z,21.11
2023-05-14T11:47:26.790Z,21.01
2023-05-14T11:48:26.774Z,20.99
2023-05-14T11:49:26.777Z,20.96
2023-05-14T11:50:26.927Z,20.99
2023-05-14T11:51:26.767Z,21.24
2023-05-14T11:52:26.770Z,20.94
2023-05-14T11:53:26.776Z,20.79
2023-05-14T11:54:26.768Z,20.81
2023-05-14T11:55:26.754Z,20.8
2023-05-14T11:56:26.773Z,20.55
2023-05-14T11:57:28.575Z,20.66
2023-05-14T11:58:32.142Z,20.64
2023-05-14T11:59:33.530Z,20.78
2023-05-14T12:00:26.832Z,20.85
2023-05-14T12:01:26.757Z,21.05
2023-05-14T12:02:26.786Z,21.28
2023-05-14T12:03:27.033Z,21.28
2023-05-14T12:04:26.823Z,21.52
2023-05-14T12:05:26.762Z,21.26
2023-05-14T12:06:26.784Z,21.37
2023-05-14T12:07:26.765Z,21.37
2023-05-14T12:08:26.750Z,21.44
2023-05-14T12:09:26.751Z,21.5
2023-05-14T12:10:26.875Z,21.12
2023-05-14T12:11:26.911Z,20.89
2023-05-14T12:12:26.773Z,20.79
2023-05-14T12:13:26.787Z,20.84
2023-05-14T12:14:26.759Z,20.82
2023-05-14T12:15:26.754Z,20.97
2023-05-14T12:16:26.871Z,21.33
2023-05-14T12:17:26.824Z,21.65
2023-05-14T12:18:28.827Z,22.04
2023-05-14T12:19:32.016Z,22.2
2023-05-14T12:20:33.684Z,21.98
2023-05-14T12:21:26.757Z,21.82
2023-05-14T12:22:26.757Z,21.87
2023-05-14T12:23:26.781Z,22
2023-05-14T12:24:26.764Z,21.91
2023-05-14T12:25:26.973Z,21.98
2023-05-14T12:26:26.948Z,22.28
2023-05-14T12:27:26.761Z,22.28
2023-05-14T12:28:26.755Z,22.21
2023-05-14T12:29:26.764Z,22.4
2023-05-14T12:30:26.769Z,22.33
2023-05-14T12:31:26.799Z,22.44
2023-05-14T12:32:26.910Z,22.5
2023-05-14T12:33:26.753Z,22.9
2023-05-14T12:34:26.749Z,23.23
2023-05-14T12:35:26.949Z,23.12
2023-05-14T12:36:26.768Z,22.75
2023-05-14T12:37:26.892Z,22.15
2023-05-14T12:38:26.759Z,22.07
2023-05-14T12:39:28.758Z,22.16
2023-05-14T12:40:31.790Z,22.17
2023-05-14T12:41:33.704Z,22.24
2023-05-14T12:42:26.763Z,22.31
2023-05-14T12:43:26.778Z,22.42
2023-05-14T12:44:26.766Z,22.12
2023-05-14T12:45:26.767Z,22.02
2023-05-14T12:46:26.813Z,22.21
2023-05-14T12:47:26.829Z,22.32
2023-05-14T12:48:26.773Z,22.61
2023-05-14T12:49:26.772Z,22.82
2023-05-14T12:50:26.997Z,23.08
2023-05-14T12:51:26.797Z,23.24
2023-05-14T12:53:26.754Z,23.31
2023-05-14T12:54:26.761Z,22.93
2023-05-14T12:55:26.762Z,23.17
2023-05-14T12:56:26.876Z,23.07
2023-05-14T12:57:26.780Z,23.35
2023-05-14T12:58:26.761Z,22.97
2023-05-14T12:59:26.767Z,22.79
2023-05-14T13:00:28.896Z,22.36
2023-05-14T13:01:31.996Z,22.45
2023-05-14T13:02:33.910Z,22.62
2023-05-14T13:03:26.780Z,22.75
2023-05-14T13:04:26.794Z,22.59
2023-05-14T13:05:26.918Z,22.39
2023-05-14T13:06:26.757Z,22.7
2023-05-14T13:07:26.779Z,22.43
2023-05-14T13:08:26.768Z,22.6
2023-05-14T13:09:26.760Z,22.45
2023-05-14T13:10:26.786Z,22.23
2023-05-14T13:11:26.763Z,22.52
2023-05-14T13:12:26.780Z,22.2
2023-05-14T13:13:26.768Z,22.07
2023-05-14T13:14:26.818Z,21.93
2023-05-14T13:15:26.759Z,21.99
2023-05-14T13:16:26.796Z,22.03
2023-05-14T13:17:26.856Z,22.04
2023-05-14T13:18:26.892Z,21.94
2023-05-14T13:19:26.759Z,21.58
2023-05-14T13:20:26.772Z,21.56
2023-05-14T13:21:27.153Z,21.61
2023-05-14T13:22:29.647Z,21.73
2023-05-14T13:23:32.101Z,21.81
2023-05-14T13:25:26.776Z,22.05
2023-05-14T13:26:26.780Z,22.23
2023-05-14T13:27:26.780Z,22.69
2023-05-14T13:28:26.757Z,22.77
2023-05-14T13:29:26.774Z,22.61
2023-05-14T13:30:26.773Z,22.49
2023-05-14T13:31:26.799Z,22.53